Time;durP1;ratioP1;P1;durP2;ratioP2;P2;SDS_P1;SDS_P2;PMS_P1;PMS_P2;Temp;Humidity;BMP_temperature;BMP_pressure;BME280_temperature;BME280_humidity;BME280_pressure;Samples;Min_cycle;Max_cycle;Signal;HPM_P1;HPM_P2
2024/01/18 00:01:00;;;;;;;21.92;9.32;;;;;;;3.55;57.21;99279.00;4918948;28;124004;-67
2024/01/18 00:03:27;;;;;;;22.00;8.80;;;;;;;3.56;57.10;99280.72;4900594;28;119319;-67
2024/01/18 00:05:55;;;;;;;17.63;9.02;;;;;;;3.56;57.44;99285.97;4921272;28;119294;-68
2024/01/18 00:08:23;;;;;;;19.00;8.95;;;;;;;3.57;57.20;99276.31;4915856;28;124454;-68
2024/01/18 00:10:50;;;;;;;18.67;9.20;;;;;;;3.56;57.47;99280.72;4919935;28;124050;-67
2024/01/18 00:13:18;;;;;;;20.20;9.98;;;;;;;3.56;57.39;99291.19;4906717;28;119005;-68
2024/01/18 00:15:45;;;;;;;20.10;9.52;;;;;;;3.56;57.11;99291.19;4918796;28;119632;-67
2024/01/18 00:18:12;;;;;;;18.50;9.30;;;;;;;3.56;57.03;99296.44;4908129;28;124088;-67
2024/01/18 00:20:40;;;;;;;19.27;9.10;;;;;;;3.56;57.01;99291.19;4919421;28;123789;-68
2024/01/18 00:23:07;;;;;;;16.45;8.82;;;;;;;3.55;57.32;99289.47;4921954;28;119123;-67
2024/01/18 00:25:34;;;;;;;19.05;9.32;;;;;;;3.54;57.41;99293.00;4922527;28;119157;-68
2024/01/18 00:28:02;;;;;;;18.13;9.20;;;;;;;3.55;57.48;99294.72;4915393;28;124315;-67
2024/01/18 00:30:30;;;;;;;20.15;9.27;;;;;;;3.54;57.10;99307.84;4909949;28;123970;-67
2024/01/18 00:32:58;;;;;;;21.38;9.73;;;;;;;3.53;57.12;99307.00;4909486;28;119233;-68
2024/01/18 00:35:25;;;;;;;21.70;9.68;;;;;;;3.51;57.14;99314.06;4920477;28;119809;-68
2024/01/18 00:37:52;;;;;;;19.67;9.38;;;;;;;3.49;57.12;99310.69;4925436;28;124405;-68
2024/01/18 00:40:20;;;;;;;18.20;9.48;;;;;;;3.48;57.08;99319.41;4920814;28;124206;-67
2024/01/18 00:42:47;;;;;;;20.42;9.70;;;;;;;3.47;57.35;99328.22;4907724;28;119464;-68
2024/01/18 00:45:14;;;;;;;19.45;9.50;;;;;;;3.46;57.44;99321.25;4914614;28;120084;-68
2024/01/18 00:47:44;;;;;;;20.60;9.55;;;;;;;3.45;57.16;99319.56;4924519;28;124062;-68
2024/01/18 00:50:12;;;;;;;19.25;9.32;;;;;;;3.43;57.38;99321.41;4927466;28;123941;-68
2024/01/18 00:52:39;;;;;;;24.80;10.45;;;;;;;3.42;56.69;99324.91;4924160;28;119152;-68
2024/01/18 00:55:09;;;;;;;21.40;9.68;;;;;;;3.40;57.25;99338.06;4910779;28;117893;-68
2024/01/18 00:57:37;;;;;;;19.83;9.85;;;;;;;3.38;57.30;99336.44;4926419;28;124562;-68
2024/01/18 01:00:06;;;;;;;17.65;9.90;;;;;;;3.38;57.11;99339.03;4917190;28;124532;-67
2024/01/18 01:02:33;;;;;;;19.20;10.20;;;;;;;3.36;57.45;99351.34;4911013;28;119026;-68
2024/01/18 01:05:00;;;;;;;20.08;9.55;;;;;;;3.34;57.53;99350.53;4928514;28;119361;-67
2024/01/18 01:07:28;;;;;;;19.80;10.50;;;;;;;3.31;57.28;99349.75;4911824;28;123394;-68
2024/01/18 01:09:55;;;;;;;22.67;10.93;;;;;;;3.31;57.30;99352.38;4927799;28;123571;-67
2024/01/18 01:12:22;;;;;;;19.13;9.68;;;;;;;3.33;57.35;99351.44;4910038;28;118296;-67
2024/01/18 01:14:49;;;;;;;22.08;10.18;;;;;;;3.33;57.54;99354.06;4924496;28;119447;-68
2024/01/18 01:17:17;;;;;;;21.20;10.45;;;;;;;3.34;57.31;99358.41;4924976;28;124123;-68
2024/01/18 01:19:47;;;;;;;18.92;10.02;;;;;;;3.31;57.44;99355.00;4928773;28;123985;-68
2024/01/18 01:22:14;;;;;;;21.75;10.80;;;;;;;3.32;57.35;99361.06;4896225;28;118930;-68
2024/01/18 01:24:41;;;;;;;19.60;10.32;;;;;;;3.34;57.40;99355.78;4915466;28;119091;-68
2024/01/18 01:27:08;;;;;;;20.30;10.45;;;;;;;3.33;57.62;99361.91;4927700;28;123838;-68
2024/01/18 01:29:36;;;;;;;21.10;10.02;;;;;;;3.33;57.40;99362.75;4917543;28;123863;-68
2024/01/18 01:32:05;;;;;;;22.45;10.75;;;;;;;3.34;57.19;99369.72;4922759;28;120330;-68
2024/01/18 01:34:32;;;;;;;17.17;9.85;;;;;;;3.35;57.41;99373.16;4926794;28;119639;-68
2024/01/18 01:36:59;;;;;;;20.83;10.43;;;;;;;3.34;57.39;99368.88;4897925;28;123727;-67
2024/01/18 01:39:26;;;;;;;20.40;10.60;;;;;;;3.33;57.49;99372.38;4913483;28;122914;-68
2024/01/18 01:41:54;;;;;;;19.95;10.02;;;;;;;3.31;57.36;99370.69;4922155;28;119779;-67
2024/01/18 01:44:21;;;;;;;21.33;10.20;;;;;;;3.29;57.44;99362.03;4910739;28;118152;-67
2024/01/18 01:46:49;;;;;;;21.02;10.38;;;;;;;3.29;57.37;99377.72;4928663;28;123964;-68
2024/01/18 01:49:17;;;;;;;22.02;11.02;;;;;;;3.28;57.59;99365.56;4927264;28;124010;-67
2024/01/18 01:51:49;;;;;;;22.55;10.20;;;;;;;3.28;57.49;99375.19;4907094;28;118102;-67
2024/01/18 01:54:19;;;;;;;23.17;10.48;;;;;;;3.27;57.40;99374.31;4925415;28;119222;-67
2024/01/18 01:56:50;;;;;;;21.08;10.63;;;;;;;3.28;57.62;99381.25;4924029;28;124067;-67
2024/01/18 01:59:18;;;;;;;25.67;10.90;;;;;;;3.27;57.75;99374.31;4910067;28;123082;-67
2024/01/18 02:01:47;;;;;;;21.30;10.70;;;;;;;3.26;57.40;99377.84;4924861;28;119222;-67
2024/01/18 02:04:15;;;;;;;23.75;10.85;;;;;;;3.26;57.69;99384.88;4903125;28;118327;-67
2024/01/18 02:06:44;;;;;;;20.98;10.27;;;;;;;3.27;57.73;99394.41;4927175;28;124536;-67
2024/01/18 02:09:11;;;;;;;19.75;10.65;;;;;;;3.26;57.52;99396.16;4918791;28;123915;-67
2024/01/18 02:11:38;;;;;;;24.88;11.13;;;;;;;3.26;57.70;99393.56;4924343;28;119739;-67
2024/01/18 02:14:07;;;;;;;23.23;11.40;;;;;;;3.26;57.48;99403.19;4923263;28;118985;-67
2024/01/18 02:16:35;;;;;;;20.83;10.48;;;;;;;3.23;57.54;99404.13;4916611;28;124739;-67
2024/01/18 02:19:02;;;;;;;24.90;10.95;;;;;;;3.25;57.53;99402.31;4920839;28;123973;-67
2024/01/18 02:21:30;;;;;;;20.42;11.13;;;;;;;3.25;57.78;99397.06;4926302;28;121035;-67
2024/01/18 02:24:09;;;;;;;23.17;10.73;;;;;;;3.24;57.80;99390.16;4908597;28;118079;-67
2024/01/18 02:26:37;;;;;;;21.20;10.55;;;;;;;3.25;57.77;99397.06;4911036;28;123985;-67
2024/01/18 02:29:04;;;;;;;21.70;11.13;;;;;;;3.25;57.79;99393.59;4928618;28;122798;-67
2024/01/18 02:31:32;;;;;;;20.05;10.90;;;;;;;3.24;57.70;99395.38;4927147;28;119353;-67
2024/01/18 02:33:59;;;;;;;24.35;10.88;;;;;;;3.25;57.61;99397.06;4909801;28;119468;-68
2024/01/18 02:36:27;;;;;;;27.17;11.25;;;;;;;3.23;57.66;99398.91;4927277;28;123935;-68
2024/01/18 02:38:55;;;;;;;21.17;10.75;;;;;;;3.22;58.17;99402.44;4910237;28;122979;-67
2024/01/18 02:41:23;;;;;;;22.80;10.88;;;;;;;3.21;57.82;99400.72;4910248;28;119439;-67
2024/01/18 02:43:50;;;;;;;18.02;10.20;;;;;;;3.21;57.55;99395.50;4904190;28;119437;-68
2024/01/18 02:46:18;;;;;;;25.75;10.82;;;;;;;3.21;57.86;99390.25;4891038;28;124435;-68
2024/01/18 02:48:45;;;;;;;19.58;10.57;;;;;;;3.19;57.71;99392.09;4909745;28;124511;-67
2024/01/18 02:51:13;;;;;;;22.55;10.50;;;;;;;3.18;57.54;99395.59;4921721;28;120056;-68
2024/01/18 02:53:40;;;;;;;24.83;11.40;;;;;;;3.15;57.61;99398.34;4908777;28;118477;-68
2024/01/18 02:56:07;;;;;;;21.13;11.25;;;;;;;3.15;57.88;99406.19;4911871;28;123012;-68
2024/01/18 02:58:35;;;;;;;25.15;10.95;;;;;;;3.14;57.89;99403.63;4917183;28;124618;-68
2024/01/18 03:01:02;;;;;;;21.90;10.98;;;;;;;3.13;57.80;99408.00;4925299;28;119470;-67
2024/01/18 03:03:29;;;;;;;18.63;10.90;;;;;;;3.14;57.95;99414.94;4928268;28;119153;-67
2024/01/18 03:05:57;;;;;;;19.13;9.95;;;;;;;3.13;57.78;99408.00;4912305;28;124383;-68
2024/01/18 03:08:24;;;;;;;21.42;11.15;;;;;;;3.11;58.07;99410.69;4927086;28;124021;-68
2024/01/18 03:10:51;;;;;;;22.25;10.18;;;;;;;3.10;57.85;99414.19;4914178;28;120368;-68
2024/01/18 03:13:18;;;;;;;19.02;10.45;;;;;;;3.09;58.04;99409.06;4909099;28;119845;-68
2024/01/18 03:15:46;;;;;;;25.42;10.45;;;;;;;3.09;58.21;99414.28;4911089;28;123675;-68
2024/01/18 03:18:13;;;;;;;18.48;10.05;;;;;;;3.09;57.99;99411.66;4920049;28;124545;-68
2024/01/18 03:20:40;;;;;;;22.70;11.27;;;;;;;3.10;57.86;99413.34;4918566;28;119214;-68
2024/01/18 03:23:08;;;;;;;21.77;11.38;;;;;;;3.11;58.11;99420.31;4909892;28;119122;-68
2024/01/18 03:25:35;;;;;;;20.25;10.13;;;;;;;3.10;57.90;99418.59;4908478;28;122794;-68
2024/01/18 03:28:03;;;;;;;24.08;11.15;;;;;;;3.11;57.90;99425.53;4924841;28;123911;-68
2024/01/18 03:30:30;;;;;;;22.05;10.63;;;;;;;3.10;57.97;99423.81;4914171;28;119719;-68
2024/01/18 03:32:57;;;;;;;23.65;10.85;;;;;;;3.10;58.16;99426.44;4919936;28;119353;-68
2024/01/18 03:35:24;;;;;;;23.73;10.70;;;;;;;3.09;57.99;99422.13;4902657;28;124291;-68
2024/01/18 03:37:52;;;;;;;26.45;11.27;;;;;;;3.09;58.11;99422.13;4908716;28;124167;-68
2024/01/18 03:40:19;;;;;;;21.65;10.77;;;;;;;3.09;58.28;99429.97;4916486;28;119280;-68
2024/01/18 03:42:46;;;;;;;17.67;10.13;;;;;;;3.10;58.12;99434.28;4919839;28;119802;-68
2024/01/18 03:45:15;;;;;;;26.13;11.38;;;;;;;3.11;58.33;99433.38;4913286;28;124132;-69
2024/01/18 03:47:42;;;;;;;19.40;10.40;;;;;;;3.12;57.96;99440.31;4925217;28;123113;-69
2024/01/18 03:50:14;;;;;;;16.88;9.82;;;;;;;3.11;58.13;99425.53;4912030;28;118435;-69
2024/01/18 03:52:42;;;;;;;19.23;10.88;;;;;;;3.10;57.95;99439.50;4922128;28;119375;-69
2024/01/18 03:55:10;;;;;;;22.25;11.00;;;;;;;3.07;58.03;99434.38;4924145;28;124536;-69
2024/01/18 03:57:37;;;;;;;20.73;10.13;;;;;;;3.06;58.07;99443.16;4895959;28;122790;-69
2024/01/18 04:00:05;;;;;;;24.35;10.55;;;;;;;3.05;57.90;99444.03;4924779;28;120492;-69
2024/01/18 04:02:34;;;;;;;17.50;10.07;;;;;;;3.02;58.08;99436.34;4919712;28;120095;-69
2024/01/18 04:05:01;;;;;;;20.73;10.52;;;;;;;2.99;57.87;99439.06;4908482;28;123177;-69
2024/01/18 04:07:28;;;;;;;21.88;9.85;;;;;;;2.97;57.89;99448.72;4905733;28;124522;-69
2024/01/18 04:09:56;;;;;;;22.45;11.40;;;;;;;2.95;58.10;99450.53;4927095;28;119509;-70
2024/01/18 04:12:24;;;;;;;24.38;10.40;;;;;;;2.92;58.07;99441.06;4900261;28;119165;-70
2024/01/18 04:14:51;;;;;;;21.08;10.75;;;;;;;2.89;57.78;99442.00;4922677;28;124038;-70
2024/01/18 04:17:18;;;;;;;19.30;10.20;;;;;;;2.88;57.92;99450.78;4923861;28;123741;-70
2024/01/18 04:19:45;;;;;;;19.08;10.50;;;;;;;2.86;57.81;99452.59;4915970;28;119576;-70
2024/01/18 04:22:13;;;;;;;21.70;10.63;;;;;;;2.85;57.81;99456.09;4907403;28;119699;-70
2024/01/18 04:24:40;;;;;;;18.55;10.68;;;;;;;2.83;58.02;99452.69;4907584;28;124666;-70
2024/01/18 04:27:07;;;;;;;20.75;10.07;;;;;;;2.81;57.96;99459.72;4906174;28;123955;-69
2024/01/18 04:29:34;;;;;;;18.33;9.90;;;;;;;2.80;58.08;99463.25;4922499;28;119499;-72
2024/01/18 04:32:02;;;;;;;21.48;10.70;;;;;;;2.79;57.99;99461.56;4910390;28;118710;-70
2024/01/18 04:34:29;;;;;;;22.17;9.93;;;;;;;2.78;57.98;99464.22;4923730;28;124765;-69
2024/01/18 04:36:57;;;;;;;20.75;10.43;;;;;;;2.78;58.18;99465.06;4906024;28;123976;-69
2024/01/18 04:39:24;;;;;;;22.02;10.07;;;;;;;2.74;57.86;99460.84;4914328;28;119375;-69
2024/01/18 04:41:52;;;;;;;22.60;10.38;;;;;;;2.70;57.80;99477.56;4912544;28;120161;-69
2024/01/18 04:44:21;;;;;;;20.00;10.02;;;;;;;2.65;57.75;99484.69;4927714;28;124032;-69
2024/01/18 04:46:48;;;;;;;20.80;10.43;;;;;;;2.61;58.20;99483.09;4911203;28;124235;-69
2024/01/18 04:49:15;;;;;;;20.73;10.30;;;;;;;2.57;58.11;99491.97;4920784;28;120216;-69
2024/01/18 04:51:43;;;;;;;20.58;10.32;;;;;;;2.52;58.03;99494.72;4915584;28;120109;-69
2024/01/18 04:54:11;;;;;;;20.25;10.23;;;;;;;2.45;57.72;99494.06;4917577;28;124540;-69
2024/01/18 04:56:38;;;;;;;21.65;10.15;;;;;;;2.37;57.91;99501.31;4900732;28;123615;-69
2024/01/18 04:59:08;;;;;;;20.55;10.10;;;;;;;2.30;57.86;99490.22;4928104;28;119521;-69
2024/01/18 05:01:39;;;;;;;18.20;9.85;;;;;;;2.25;58.26;99502.56;4916670;28;119149;-69
2024/01/18 05:04:07;;;;;;;21.85;10.35;;;;;;;2.21;57.71;99500.97;4907278;28;124243;-69
2024/01/18 05:06:35;;;;;;;19.60;9.95;;;;;;;2.17;58.00;99501.09;4927176;28;125306;-69
2024/01/18 05:09:02;;;;;;;20.58;10.07;;;;;;;2.13;57.96;99508.19;4911687;28;118029;-69
2024/01/18 05:11:30;;;;;;;18.05;9.50;;;;;;;2.09;57.92;99515.28;4925408;28;119796;-69
2024/01/18 05:13:57;;;;;;;23.48;9.75;;;;;;;2.06;57.92;99512.75;4909322;28;122873;-69
2024/01/18 05:16:25;;;;;;;19.73;9.57;;;;;;;2.03;57.92;99518.06;4922236;28;124208;-69
2024/01/18 05:18:52;;;;;;;19.25;9.73;;;;;;;2.01;58.00;99530.31;4920606;28;119244;-71
2024/01/18 05:21:22;;;;;;;20.90;10.18;;;;;;;1.98;57.92;99525.22;4902665;28;118074;-69
2024/01/18 05:23:49;;;;;;;21.67;9.80;;;;;;;1.95;58.02;99530.50;4900789;28;123417;-69
2024/01/18 05:26:16;;;;;;;20.95;10.00;;;;;;;1.93;57.88;99532.31;4919606;28;124847;-69
2024/01/18 05:28:44;;;;;;;23.65;9.98;;;;;;;1.93;58.01;99532.31;4921871;28;119236;-69
2024/01/18 05:31:11;;;;;;;21.02;10.02;;;;;;;1.90;58.10;99532.41;4918545;28;119222;-69
2024/01/18 05:33:38;;;;;;;18.10;10.18;;;;;;;1.89;58.18;99526.34;4928840;28;124365;-69
2024/01/18 05:36:06;;;;;;;19.60;10.27;;;;;;;1.87;58.10;99537.72;4898650;28;123627;-69
2024/01/18 05:38:33;;;;;;;21.00;9.50;;;;;;;1.86;58.04;99549.06;4929605;28;121562;-69
2024/01/18 05:41:08;;;;;;;20.33;10.40;;;;;;;1.82;58.01;99539.63;4912178;28;118815;-69
2024/01/18 05:43:35;;;;;;;19.05;9.88;;;;;;;1.79;58.40;99535.34;4922079;28;124437;-69
2024/01/18 05:46:02;;;;;;;18.15;9.57;;;;;;;1.77;58.17;99536.28;4898029;28;122829;-69
2024/01/18 05:48:30;;;;;;;18.70;9.40;;;;;;;1.74;58.16;99548.53;4921406;28;119182;-69
2024/01/18 05:50:57;;;;;;;17.55;9.48;;;;;;;1.73;58.17;99557.28;4910022;28;119456;-69
2024/01/18 05:53:25;;;;;;;20.10;9.48;;;;;;;1.72;58.24;99559.94;4911250;28;124166;-69
2024/01/18 05:55:52;;;;;;;24.88;9.77;;;;;;;1.70;58.40;99561.72;4910443;28;124499;-69
2024/01/18 05:58:19;;;;;;;19.25;10.23;;;;;;;1.67;58.14;99562.66;4918044;28;119366;-69
2024/01/18 06:00:46;;;;;;;20.40;10.13;;;;;;;1.64;58.11;99567.97;4911521;28;119087;-70
2024/01/18 06:03:14;;;;;;;18.73;9.88;;;;;;;1.62;58.21;99569.78;4903207;28;124609;-70
2024/01/18 06:05:41;;;;;;;21.20;9.13;;;;;;;1.59;58.21;99569.88;4912333;28;123519;-69
2024/01/18 06:08:09;;;;;;;24.50;9.50;;;;;;;1.56;57.98;99575.16;4924530;28;119632;-69
2024/01/18 06:10:36;;;;;;;15.30;8.07;;;;;;;1.52;58.08;99578.75;4913849;28;118081;-69
2024/01/18 06:13:04;;;;;;;18.27;8.82;;;;;;;1.49;58.20;99578.88;4924032;28;124353;-69
2024/01/18 06:15:31;;;;;;;18.05;9.23;;;;;;;1.46;58.33;99586.78;4925654;28;124014;-70
2024/01/18 06:18:03;;;;;;;18.90;8.50;;;;;;;1.43;58.18;99589.44;4927347;28;118980;-70
2024/01/18 06:20:31;;;;;;;19.60;8.57;;;;;;;1.41;58.09;99596.47;4920438;28;119374;-69
2024/01/18 06:22:58;;;;;;;18.08;8.85;;;;;;;1.38;58.24;99607.00;4919144;28;123697;-69
2024/01/18 06:25:26;;;;;;;16.10;9.07;;;;;;;1.35;58.23;99607.94;4905075;28;124648;-69
2024/01/18 06:27:53;;;;;;;16.20;9.13;;;;;;;1.34;57.93;99620.13;4910051;28;119482;-69
2024/01/18 06:30:23;;;;;;;16.00;8.38;;;;;;;1.30;58.26;99623.72;4912106;28;120395;-69
2024/01/18 06:32:50;;;;;;;18.10;7.93;;;;;;;1.29;58.23;99618.53;4926991;28;124082;-69
2024/01/18 06:35:18;;;;;;;21.40;8.40;;;;;;;1.26;58.33;99624.69;4912677;28;123710;-69
2024/01/18 06:37:45;;;;;;;21.95;8.02;;;;;;;1.25;58.42;99643.84;4909811;28;118486;-69
2024/01/18 06:40:13;;;;;;;16.92;8.25;;;;;;;1.22;58.21;99643.91;4918341;28;118971;-69
2024/01/18 06:42:40;;;;;;;22.48;8.45;;;;;;;1.21;58.27;99642.22;4906386;28;124272;-68
2024/01/18 06:45:09;;;;;;;19.30;7.47;;;;;;;1.19;58.23;99643.13;4908293;28;123051;-68
2024/01/18 06:47:36;;;;;;;17.77;8.63;;;;;;;1.14;58.16;99645.88;4924846;28;119696;-67
2024/01/18 06:50:04;;;;;;;15.20;8.02;;;;;;;1.12;58.23;99652.88;4919432;28;118926;-68
2024/01/18 06:52:31;;;;;;;18.75;8.20;;;;;;;1.09;57.87;99652.94;4922885;28;123848;-67
2024/01/18 06:54:58;;;;;;;14.60;7.80;;;;;;;1.07;57.95;99654.75;4918458;28;124124;-68
2024/01/18 06:57:26;;;;;;;18.02;8.35;;;;;;;1.06;58.11;99653.03;4921613;28;119173;-68
2024/01/18 06:59:54;;;;;;;16.08;8.10;;;;;;;1.03;58.36;99653.09;4910025;28;118719;-67
2024/01/18 07:02:31;;;;;;;17.38;8.00;;;;;;;1.00;58.29;99653.16;4916639;28;123854;-68
2024/01/18 07:05:00;;;;;;;17.38;8.43;;;;;;;0.97;58.17;99659.31;4907458;28;124788;-67
2024/01/18 07:07:27;;;;;;;22.58;8.57;;;;;;;0.92;58.04;99667.28;4925636;28;119547;-67
2024/01/18 07:09:56;;;;;;;16.95;8.80;;;;;;;0.91;58.29;99681.19;4927574;28;119026;-68
2024/01/18 07:12:24;;;;;;;17.70;8.93;;;;;;;0.90;58.28;99678.63;4919498;28;123835;-68
2024/01/18 07:14:52;;;;;;;18.38;8.88;;;;;;;0.88;58.30;99681.25;4907789;28;125476;-67
2024/01/18 07:17:19;;;;;;;22.00;10.07;;;;;;;0.86;58.26;99688.25;4904230;28;120191;-67
2024/01/18 07:19:47;;;;;;;19.25;8.93;;;;;;;0.83;58.15;99698.78;4916502;28;121561;-67
2024/01/18 07:22:14;;;;;;;16.70;8.85;;;;;;;0.81;58.30;99700.56;4912770;28;123978;-68
2024/01/18 07:24:41;;;;;;;21.83;9.40;;;;;;;0.78;58.55;99701.47;4922988;28;124265;-68
2024/01/18 07:27:09;;;;;;;22.52;9.85;;;;;;;0.75;58.29;99701.56;4923905;28;119444;-67
2024/01/18 07:29:37;;;;;;;24.70;10.18;;;;;;;0.74;58.12;99699.00;4922519;28;119189;-67
2024/01/18 07:32:04;;;;;;;23.33;10.38;;;;;;;0.71;58.18;99704.25;4908898;28;124301;-67
2024/01/18 07:34:35;;;;;;;17.63;8.45;;;;;;;0.69;58.37;99700.84;4901543;28;123409;-68
2024/01/18 07:37:04;;;;;;;17.77;9.00;;;;;;;0.67;58.13;99713.88;4915599;28;120100;-67
2024/01/18 07:39:34;;;;;;;22.02;9.90;;;;;;;0.66;58.50;99708.72;4900441;28;118155;-67
2024/01/18 07:42:02;;;;;;;27.00;10.05;;;;;;;0.64;58.35;99713.09;4913643;28;124083;-68
2024/01/18 07:44:29;;;;;;;19.15;9.10;;;;;;;0.62;58.27;99714.88;4915382;28;123891;-67
2024/01/18 07:46:57;;;;;;;18.83;9.98;;;;;;;0.61;58.53;99723.63;4919837;28;119867;-67
2024/01/18 07:49:24;;;;;;;17.98;8.32;;;;;;;0.60;58.29;99732.31;4918250;28;119070;-67
2024/01/18 07:51:51;;;;;;;15.90;8.57;;;;;;;0.59;58.46;99726.25;4902375;28;122833;-67
2024/01/18 07:54:19;;;;;;;16.95;8.48;;;;;;;0.59;58.62;99736.66;4914092;28;123966;-67
2024/01/18 07:56:46;;;;;;;18.02;8.40;;;;;;;0.58;58.33;99733.22;4911086;28;119101;-67
2024/01/18 07:59:14;;;;;;;20.35;8.75;;;;;;;0.56;58.34;99742.78;4908579;28;118086;-67
2024/01/18 08:01:43;;;;;;;20.45;9.30;;;;;;;0.55;58.35;99741.09;4908830;28;124310;-66
2024/01/18 08:04:10;;;;;;;17.23;8.65;;;;;;;0.55;58.35;99751.50;4922574;28;125334;-66
2024/01/18 08:06:39;;;;;;;19.30;8.55;;;;;;;0.53;58.27;99750.69;4919335;28;119979;-66
2024/01/18 08:09:07;;;;;;;20.63;8.80;;;;;;;0.52;58.26;99767.19;4922798;28;120522;-67
2024/01/18 08:11:34;;;;;;;21.58;9.73;;;;;;;0.51;58.45;99770.69;4920527;28;124702;-66
2024/01/18 08:14:01;;;;;;;18.77;9.63;;;;;;;0.49;58.39;99767.28;4899192;28;124583;-66
2024/01/18 08:16:30;;;;;;;20.13;9.70;;;;;;;0.50;58.58;99768.97;4922686;28;119439;-66
2024/01/18 08:18:57;;;;;;;21.00;10.35;;;;;;;0.50;58.44;99778.53;4919664;28;118984;-66
2024/01/18 08:21:26;;;;;;;23.33;10.90;;;;;;;0.49;58.51;99777.69;4924108;28;124020;-67
2024/01/18 08:23:54;;;;;;;26.30;11.38;;;;;;;0.50;58.54;99784.59;4926563;28;123299;-67
2024/01/18 08:26:21;;;;;;;24.77;11.07;;;;;;;0.50;58.63;99779.41;4924212;28;119541;-66
2024/01/18 08:28:48;;;;;;;25.52;10.27;;;;;;;0.51;58.50;99783.72;4903440;28;119817;-66
2024/01/18 08:31:15;;;;;;;25.83;11.50;;;;;;;0.52;58.50;99792.38;4902268;28;125415;-66
2024/01/18 08:33:43;;;;;;;30.10;11.43;;;;;;;0.55;58.65;99798.41;4918654;28;123999;-66
2024/01/18 08:36:13;;;;;;;22.88;10.55;;;;;;;0.58;58.59;99798.34;4911925;28;118054;-66
2024/01/18 08:38:40;;;;;;;26.73;9.80;;;;;;;0.61;58.79;99797.41;4921620;28;119375;-66
2024/01/18 08:41:07;;;;;;;18.13;9.85;;;;;;;0.64;58.74;99801.69;4919420;28;124836;-66
2024/01/18 08:43:35;;;;;;;20.25;9.45;;;;;;;0.67;58.71;99804.25;4922386;28;124500;-66
2024/01/18 08:46:06;;;;;;;23.20;9.40;;;;;;;0.70;58.79;99812.84;4914350;28;118252;-66
2024/01/18 08:48:59;;;;;;;21.92;9.73;;;;;;;0.75;58.80;99820.56;4932369;28;118972;-67
2024/01/18 08:51:40;;;;;;;22.05;8.57;;;;;;;0.76;58.97;99817.06;4933531;28;123889;-66
2024/01/18 08:54:08;;;;;;;18.33;9.20;;;;;;;0.80;58.83;99823.94;4901640;28;123131;-66
2024/01/18 08:56:36;;;;;;;18.65;9.93;;;;;;;0.84;58.67;99824.72;4924398;28;120102;-65
2024/01/18 08:59:03;;;;;;;22.08;9.85;;;;;;;0.87;58.76;99830.72;4920615;28;120437;-66
2024/01/18 09:01:31;;;;;;;15.80;9.25;;;;;;;0.93;58.68;99830.59;4914301;28;124079;-66
2024/01/18 09:03:58;;;;;;;22.33;10.00;;;;;;;0.97;59.10;99837.44;4917978;28;123367;-66
2024/01/18 09:06:25;;;;;;;18.52;9.27;;;;;;;1.03;58.89;99830.38;4915824;28;119923;-66
2024/01/18 09:08:53;;;;;;;14.32;8.13;;;;;;;1.07;58.69;99842.47;4906841;28;119517;-66
2024/01/18 09:11:22;;;;;;;17.40;8.20;;;;;;;1.13;59.11;99842.31;4895204;28;124878;-66
2024/01/18 09:13:49;;;;;;;14.30;7.38;;;;;;;1.18;58.90;99850.91;4927497;28;123875;-66
2024/01/18 09:16:19;;;;;;;16.60;7.93;;;;;;;1.25;59.20;99852.47;4907408;28;118221;-66
2024/01/18 09:18:46;;;;;;;16.27;7.57;;;;;;;1.30;59.05;99866.28;4919489;28;118942;-66
2024/01/18 09:21:32;;;;;;;14.05;7.93;;;;;;;1.36;59.10;99866.13;4919603;28;124590;-66
2024/01/18 09:23:59;;;;;;;14.98;7.57;;;;;;;1.42;59.10;99874.72;4920132;28;123717;-67
2024/01/18 09:26:26;;;;;;;14.60;7.13;;;;;;;1.47;59.17;99871.13;4923824;28;119359;-67
2024/01/18 09:28:54;;;;;;;10.57;5.55;;;;;;;1.53;59.20;99884.00;4918507;28;118904;-67
2024/01/18 09:31:22;;;;;;;14.10;5.80;;;;;;;1.61;59.29;99886.44;4925252;28;123467;-67
2024/01/18 09:34:04;;;;;;;15.25;5.13;;;;;;;1.69;58.93;99894.94;4903049;28;123726;-67
2024/01/18 09:36:32;;;;;;;11.18;5.80;;;;;;;1.77;59.40;99906.94;4925300;28;119882;-67
2024/01/18 09:38:59;;;;;;;12.57;6.00;;;;;;;1.84;59.38;99917.19;4905316;28;119443;-66
2024/01/18 09:41:29;;;;;;;14.57;6.22;;;;;;;1.92;59.50;99911.78;4920462;28;124365;-66
2024/01/18 09:44:03;;;;;;;15.55;6.38;;;;;;;2.00;59.62;99915.09;4905009;28;122941;-66
2024/01/18 09:46:32;;;;;;;16.33;5.65;;;;;;;2.09;59.63;99909.63;4912664;28;120577;-66
2024/01/18 09:48:59;;;;;;;12.93;6.35;;;;;;;2.18;59.62;99923.34;4919817;28;119800;-66
2024/01/18 09:51:31;;;;;;;13.65;6.43;;;;;;;2.27;59.53;99930.94;4915793;28;124353;-66
2024/01/18 09:54:00;;;;;;;13.15;5.75;;;;;;;2.35;59.55;99936.81;4927700;28;123640;-66
2024/01/18 09:56:29;;;;;;;12.73;5.35;;;;;;;2.43;59.65;99940.13;4911359;28;119158;-66
2024/01/18 09:58:58;;;;;;;9.35;5.40;;;;;;;2.50;59.65;99941.63;4907494;28;118520;-66
2024/01/18 10:01:25;;;;;;;14.35;5.80;;;;;;;2.59;59.60;99950.16;4913402;28;124030;-66
2024/01/18 10:03:53;;;;;;;15.35;5.72;;;;;;;2.66;59.73;99951.72;4893156;28;124337;-67
2024/01/18 10:06:21;;;;;;;10.25;5.45;;;;;;;2.75;59.56;99961.94;4921890;28;119606;-67
2024/01/18 10:08:52;;;;;;;12.65;5.57;;;;;;;2.83;59.71;99970.41;4918010;28;119321;-67
2024/01/18 10:11:20;;;;;;;15.35;6.30;;;;;;;2.92;59.62;99974.53;4916957;28;124084;-67
2024/01/18 10:13:51;;;;;;;17.20;7.78;;;;;;;3.01;59.77;99978.63;4907960;28;123140;-67
2024/01/18 10:16:32;;;;;;;13.23;5.78;;;;;;;3.09;59.55;99988.00;4921184;28;119788;-67
2024/01/18 10:19:02;;;;;;;11.93;5.63;;;;;;;3.18;59.66;99992.09;4894585;28;119154;-67
2024/01/18 10:21:32;;;;;;;15.60;5.35;;;;;;;3.25;59.97;99985.78;4918353;28;124148;-68
2024/01/18 10:24:03;;;;;;;14.18;5.95;;;;;;;3.34;59.80;99996.91;4921046;28;123903;-68
2024/01/18 10:26:31;;;;;;;9.35;5.57;;;;;;;3.44;59.96;99998.34;4895494;28;118816;-68
2024/01/18 10:28:59;;;;;;;16.10;6.10;;;;;;;3.54;59.78;99994.53;4928459;28;118813;-68
2024/01/18 10:31:31;;;;;;;11.65;5.43;;;;;;;3.63;60.01;100004.75;4900769;28;124307;-68
2024/01/18 10:33:58;;;;;;;12.52;5.40;;;;;;;3.72;59.69;99998.38;4881677;28;122888;-68
2024/01/18 10:36:26;;;;;;;10.95;5.15;;;;;;;3.83;59.92;100005.91;4902019;28;119368;-69
2024/01/18 10:38:54;;;;;;;12.43;4.90;;;;;;;3.91;59.72;100006.53;4910288;28;120645;-69
2024/01/18 10:41:21;;;;;;;8.95;4.63;;;;;;;4.00;59.71;100014.09;4925706;28;123490;-69
2024/01/18 10:43:48;;;;;;;12.50;4.85;;;;;;;4.10;59.86;100015.50;4912811;28;123648;-69
2024/01/18 10:46:17;;;;;;;9.73;4.50;;;;;;;4.19;59.87;100018.75;4908118;28;118838;-69
2024/01/18 10:48:46;;;;;;;8.73;3.78;;;;;;;4.29;59.91;100021.03;4926116;28;118968;-70
2024/01/18 10:51:14;;;;;;;9.73;4.50;;;;;;;4.38;59.35;100019.88;4926069;28;124320;-70
2024/01/18 10:53:43;;;;;;;9.68;4.88;;;;;;;4.46;59.50;100017.88;4928112;28;123928;-69
2024/01/18 10:56:12;;;;;;;9.48;4.40;;;;;;;4.57;59.72;100019.25;4926378;28;119228;-70
2024/01/18 10:58:39;;;;;;;12.48;4.30;;;;;;;4.66;59.53;100018.94;4927986;28;119273;-70
2024/01/18 11:01:07;;;;;;;15.07;4.10;;;;;;;4.75;59.34;100029.13;4903877;28;124147;-70
2024/01/18 11:03:36;;;;;;;6.38;3.63;;;;;;;4.83;59.14;100032.34;4926615;28;123977;-70
2024/01/18 11:06:09;;;;;;;8.73;4.05;;;;;;;4.92;59.35;100028.56;4924727;28;118818;-70
2024/01/18 11:08:40;;;;;;;8.23;3.58;;;;;;;5.00;59.33;100028.28;4922094;28;119982;-70
2024/01/18 11:11:08;;;;;;;7.47;3.88;;;;;;;5.08;59.30;100036.72;4916027;28;123822;-70
2024/01/18 11:13:35;;;;;;;10.60;3.90;;;;;;;5.16;59.13;100039.97;4926438;28;123806;-70
2024/01/18 11:16:04;;;;;;;8.85;3.95;;;;;;;5.24;59.03;100043.16;4923550;28;119384;-69
2024/01/18 11:18:34;;;;;;;5.75;3.60;;;;;;;5.33;59.06;100051.59;4922718;28;118756;-70
2024/01/18 11:21:09;;;;;;;6.85;3.28;;;;;;;5.40;58.60;100051.31;4913193;28;124323;-69
2024/01/18 11:23:40;;;;;;;;;;;;;;;5.47;58.79;100050.19;4917889;28;123067;-70
2024/01/18 11:26:17;;;;;;;4.85;2.63;;;;;;;5.57;59.07;100055.94;4863297;28;119187;-70